sensor_id;sensor_type;location;lat;lon;timestamp;pressure;altitude;pressure_sealevel;temperature;humidity
55590;BME280;41452;42.780;23.116;2022-12-11T00:02:10;92303.78;;;9.96;100.00
55590;BME280;41452;42.780;23.116;2022-12-11T00:04:35;92278.94;;;9.88;100.00
55590;BME280;41452;42.780;23.116;2022-12-11T00:07:01;92285.16;;;10.21;100.00
55590;BME280;41452;42.780;23.116;2022-12-11T00:09:26;92305.88;;;10.23;100.00
55590;BME280;41452;42.780;23.116;2022-12-11T00:11:52;92331.06;;;10.24;100.00
55590;BME280;41452;42.780;23.116;2022-12-11T00:14:17;92314.72;;;10.03;100.00
55590;BME280;41452;42.780;23.116;2022-12-11T00:16:43;92324.94;;;10.04;100.00
55590;BME280;41452;42.780;23.116;2022-12-11T00:19:08;92291.94;;;9.98;100.00
55590;BME280;41452;42.780;23.116;2022-12-11T00:21:34;92319.97;;;10.03;100.00
55590;BME280;41452;42.780;23.116;2022-12-11T00:24:00;92322.31;;;10.04;100.00
55590;BME280;41452;42.780;23.116;2022-12-11T00:26:25;92320.19;;;10.06;100.00
55590;BME280;41452;42.780;23.116;2022-12-11T00:28:53;92313.13;;;10.02;100.00
55590;BME280;41452;42.780;23.116;2022-12-11T00:31:19;92302.50;;;9.93;100.00
55590;BME280;41452;42.780;23.116;2022-12-11T00:33:45;92334.31;;;9.81;100.00
55590;BME280;41452;42.780;23.116;2022-12-11T00:36:20;92313.53;;;9.90;100.00
55590;BME280;41452;42.780;23.116;2022-12-11T00:38:46;92301.41;;;9.94;100.00
55590;BME280;41452;42.780;23.116;2022-12-11T00:41:13;92303.69;;;10.06;100.00
55590;BME280;41452;42.780;23.116;2022-12-11T00:43:39;92288.91;;;10.15;100.00
55590;BME280;41452;42.780;23.116;2022-12-11T00:46:04;92290.78;;;10.39;100.00
55590;BME280;41452;42.780;23.116;2022-12-11T00:48:30;92287.56;;;10.47;100.00
55590;BME280;41452;42.780;23.116;2022-12-11T00:50:55;92290.25;;;10.66;100.00
55590;BME280;41452;42.780;23.116;2022-12-11T00:53:21;92300.09;;;10.74;100.00
55590;BME280;41452;42.780;23.116;2022-12-11T00:55:46;92284.47;;;10.88;100.00
55590;BME280;41452;42.780;23.116;2022-12-11T00:58:12;92277.94;;;10.86;100.00
55590;BME280;41452;42.780;23.116;2022-12-11T01:00:39;92315.00;;;11.03;100.00
55590;BME280;41452;42.780;23.116;2022-12-11T01:03:05;92306.56;;;11.25;100.00
55590;BME280;41452;42.780;23.116;2022-12-11T01:05:31;92315.03;;;11.41;100.00
55590;BME280;41452;42.780;23.116;2022-12-11T01:07:57;92318.56;;;11.50;100.00
55590;BME280;41452;42.780;23.116;2022-12-11T01:10:23;92259.22;;;11.30;100.00
55590;BME280;41452;42.780;23.116;2022-12-11T01:12:54;92281.97;;;11.54;100.00
55590;BME280;41452;42.780;23.116;2022-12-11T01:15:21;92251.41;;;11.58;100.00
55590;BME280;41452;42.780;23.116;2022-12-11T01:17:48;92163.59;;;11.12;100.00
55590;BME280;41452;42.780;23.116;2022-12-11T01:20:13;92182.84;;;11.40;100.00
55590;BME280;41452;42.780;23.116;2022-12-11T01:22:39;92192.13;;;11.52;100.00
55590;BME280;41452;42.780;23.116;2022-12-11T01:25:04;92220.19;;;11.70;100.00
55590;BME280;41452;42.780;23.116;2022-12-11T01:27:30;92229.09;;;11.74;100.00
55590;BME280;41452;42.780;23.116;2022-12-11T01:29:55;92235.91;;;11.75;100.00
55590;BME280;41452;42.780;23.116;2022-12-11T01:32:21;92199.03;;;11.48;100.00
55590;BME280;41452;42.780;23.116;2022-12-11T01:34:46;92235.19;;;11.70;100.00
55590;BME280;41452;42.780;23.116;2022-12-11T01:37:12;92262.19;;;11.75;100.00
55590;BME280;41452;42.780;23.116;2022-12-11T01:39:37;92260.03;;;11.77;100.00
55590;BME280;41452;42.780;23.116;2022-12-11T01:42:03;92245.94;;;11.73;100.00
55590;BME280;41452;42.780;23.116;2022-12-11T01:46:56;92211.16;;;11.44;100.00
55590;BME280;41452;42.780;23.116;2022-12-11T01:49:24;92257.09;;;11.65;100.00
55590;BME280;41452;42.780;23.116;2022-12-11T01:51:56;92248.59;;;11.54;100.00
55590;BME280;41452;42.780;23.116;2022-12-11T01:54:23;92249.91;;;11.71;100.00
55590;BME280;41452;42.780;23.116;2022-12-11T01:56:51;92226.13;;;11.62;100.00
55590;BME280;41452;42.780;23.116;2022-12-11T01:59:20;92239.69;;;11.69;100.00
55590;BME280;41452;42.780;23.116;2022-12-11T02:04:19;92232.38;;;11.66;100.00
55590;BME280;41452;42.780;23.116;2022-12-11T02:06:48;92226.63;;;11.64;100.00
55590;BME280;41452;42.780;23.116;2022-12-11T02:09:17;92232.28;;;11.71;100.00
55590;BME280;41452;42.780;23.116;2022-12-11T02:14:33;92244.88;;;11.74;100.00
55590;BME280;41452;42.780;23.116;2022-12-11T02:17:20;92205.34;;;11.47;100.00
55590;BME280;41452;42.780;23.116;2022-12-11T02:20:10;92242.31;;;11.69;100.00
55590;BME280;41452;42.780;23.116;2022-12-11T02:25:26;92244.06;;;11.74;100.00
55590;BME280;41452;42.780;23.116;2022-12-11T02:28:42;92209.44;;;11.53;100.00
55590;BME280;41452;42.780;23.116;2022-12-11T02:30:51;92238.25;;;11.77;100.00
55590;BME280;41452;42.780;23.116;2022-12-11T02:33:22;92239.59;;;11.74;100.00
55590;BME280;41452;42.780;23.116;2022-12-11T02:35:49;92199.44;;;11.55;100.00
55590;BME280;41452;42.780;23.116;2022-12-11T02:38:28;92204.38;;;11.56;99.88
55590;BME280;41452;42.780;23.116;2022-12-11T02:40:57;92212.19;;;11.61;99.18
55590;BME280;41452;42.780;23.116;2022-12-11T02:43:24;92253.25;;;11.76;98.96
55590;BME280;41452;42.780;23.116;2022-12-11T02:45:52;92264.16;;;11.84;98.10
55590;BME280;41452;42.780;23.116;2022-12-11T02:48:19;92278.94;;;11.79;98.50
55590;BME280;41452;42.780;23.116;2022-12-11T02:50:48;92270.00;;;11.80;96.54
55590;BME280;41452;42.780;23.116;2022-12-11T02:53:18;92257.28;;;11.69;96.10
55590;BME280;41452;42.780;23.116;2022-12-11T02:55:44;92273.13;;;11.83;97.11
55590;BME280;41452;42.780;23.116;2022-12-11T02:58:17;92249.94;;;11.85;95.73
55590;BME280;41452;42.780;23.116;2022-12-11T03:00:44;92262.47;;;11.93;96.53
55590;BME280;41452;42.780;23.116;2022-12-11T03:03:11;92225.72;;;11.55;96.52
55590;BME280;41452;42.780;23.116;2022-12-11T03:05:37;92224.06;;;11.59;95.37
55590;BME280;41452;42.780;23.116;2022-12-11T03:08:03;92244.25;;;11.64;97.36
55590;BME280;41452;42.780;23.116;2022-12-11T03:10:28;92228.16;;;11.51;97.64
55590;BME280;41452;42.780;23.116;2022-12-11T03:12:54;92262.75;;;11.72;97.21
55590;BME280;41452;42.780;23.116;2022-12-11T03:15:28;92260.13;;;11.72;97.21
55590;BME280;41452;42.780;23.116;2022-12-11T03:18:05;92246.44;;;11.56;97.21
55590;BME280;41452;42.780;23.116;2022-12-11T03:20:38;92276.00;;;11.67;98.31
55590;BME280;41452;42.780;23.116;2022-12-11T03:28:15;92288.69;;;11.79;100.00
55590;BME280;41452;42.780;23.116;2022-12-11T03:30:44;92288.41;;;11.80;100.00
55590;BME280;41452;42.780;23.116;2022-12-11T03:33:15;92298.94;;;11.80;100.00
55590;BME280;41452;42.780;23.116;2022-12-11T03:35:48;92294.16;;;11.83;100.00
55590;BME280;41452;42.780;23.116;2022-12-11T03:38:31;92271.03;;;11.66;100.00
55590;BME280;41452;42.780;23.116;2022-12-11T03:41:00;92299.97;;;11.79;100.00
55590;BME280;41452;42.780;23.116;2022-12-11T03:43:27;92315.28;;;11.77;100.00
55590;BME280;41452;42.780;23.116;2022-12-11T03:45:54;92328.91;;;11.79;100.00
55590;BME280;41452;42.780;23.116;2022-12-11T03:48:21;92334.84;;;11.71;100.00
55590;BME280;41452;42.780;23.116;2022-12-11T03:50:49;92323.41;;;11.62;100.00
55590;BME280;41452;42.780;23.116;2022-12-11T03:53:15;92343.28;;;11.68;100.00
55590;BME280;41452;42.780;23.116;2022-12-11T03:55:43;92345.28;;;11.76;100.00
55590;BME280;41452;42.780;23.116;2022-12-11T03:58:10;92352.09;;;11.77;100.00
55590;BME280;41452;42.780;23.116;2022-12-11T04:00:36;92351.59;;;11.75;100.00
55590;BME280;41452;42.780;23.116;2022-12-11T04:03:02;92338.38;;;11.80;100.00
55590;BME280;41452;42.780;23.116;2022-12-11T04:05:37;92367.13;;;11.96;100.00
55590;BME280;41452;42.780;23.116;2022-12-11T04:08:03;92379.19;;;11.97;100.00
55590;BME280;41452;42.780;23.116;2022-12-11T04:10:28;92352.09;;;11.77;100.00
55590;BME280;41452;42.780;23.116;2022-12-11T04:12:54;92388.00;;;12.06;100.00
55590;BME280;41452;42.780;23.116;2022-12-11T04:15:19;92371.69;;;12.04;100.00
55590;BME280;41452;42.780;23.116;2022-12-11T04:17:45;92389.91;;;12.01;100.00
55590;BME280;41452;42.780;23.116;2022-12-11T04:20:28;92386.50;;;12.00;100.00
55590;BME280;41452;42.780;23.116;2022-12-11T04:23:15;92388.22;;;12.10;100.00
55590;BME280;41452;42.780;23.116;2022-12-11T04:26:10;92393.84;;;12.03;100.00
55590;BME280;41452;42.780;23.116;2022-12-11T04:28:36;92378.63;;;12.00;100.00
55590;BME280;41452;42.780;23.116;2022-12-11T04:31:02;92361.00;;;11.82;100.00
55590;BME280;41452;42.780;23.116;2022-12-11T04:33:28;92391.00;;;12.00;100.00
55590;BME280;41452;42.780;23.116;2022-12-11T04:35:57;92384.72;;;11.95;100.00
55590;BME280;41452;42.780;23.116;2022-12-11T04:38:22;92381.44;;;11.85;100.00
55590;BME280;41452;42.780;23.116;2022-12-11T04:40:48;92379.81;;;11.89;100.00
55590;BME280;41452;42.780;23.116;2022-12-11T04:43:13;92357.84;;;11.79;100.00
55590;BME280;41452;42.780;23.116;2022-12-11T04:45:38;92384.44;;;11.97;100.00
55590;BME280;41452;42.780;23.116;2022-12-11T04:48:04;92387.34;;;11.95;100.00
55590;BME280;41452;42.780;23.116;2022-12-11T04:50:29;92377.97;;;11.89;100.00
55590;BME280;41452;42.780;23.116;2022-12-11T04:52:55;92390.34;;;11.89;100.00
55590;BME280;41452;42.780;23.116;2022-12-11T04:55:21;92388.06;;;11.82;100.00
55590;BME280;41452;42.780;23.116;2022-12-11T04:57:47;92391.91;;;11.71;100.00
55590;BME280;41452;42.780;23.116;2022-12-11T05:00:12;92392.13;;;11.74;100.00
55590;BME280;41452;42.780;23.116;2022-12-11T05:02:39;92394.66;;;11.79;100.00
55590;BME280;41452;42.780;23.116;2022-12-11T05:05:07;92397.16;;;11.71;100.00
55590;BME280;41452;42.780;23.116;2022-12-11T05:07:36;92395.50;;;11.56;100.00
55590;BME280;41452;42.780;23.116;2022-12-11T05:10:03;92406.94;;;11.65;100.00
55590;BME280;41452;42.780;23.116;2022-12-11T05:12:28;92404.25;;;11.51;100.00
55590;BME280;41452;42.780;23.116;2022-12-11T05:14:54;92401.31;;;11.53;100.00
55590;BME280;41452;42.780;23.116;2022-12-11T05:17:20;92354.69;;;11.20;100.00
55590;BME280;41452;42.780;23.116;2022-12-11T05:19:47;92367.38;;;11.37;100.00
55590;BME280;41452;42.780;23.116;2022-12-11T05:22:13;92393.00;;;11.46;100.00
55590;BME280;41452;42.780;23.116;2022-12-11T05:24:39;92387.75;;;11.46;100.00
55590;BME280;41452;42.780;23.116;2022-12-11T05:27:04;92374.19;;;11.19;100.00
55590;BME280;41452;42.780;23.116;2022-12-11T05:29:29;92383.53;;;11.26;100.00
55590;BME280;41452;42.780;23.116;2022-12-11T05:31:55;92381.19;;;11.24;100.00
55590;BME280;41452;42.780;23.116;2022-12-11T05:34:20;92394.06;;;11.26;100.00
55590;BME280;41452;42.780;23.116;2022-12-11T05:36:46;92384.41;;;11.21;100.00
55590;BME280;41452;42.780;23.116;2022-12-11T05:39:11;92384.75;;;11.14;100.00
55590;BME280;41452;42.780;23.116;2022-12-11T05:41:37;92363.94;;;10.94;100.00
55590;BME280;41452;42.780;23.116;2022-12-11T05:44:02;92387.22;;;11.06;100.00
55590;BME280;41452;42.780;23.116;2022-12-11T05:46:29;92388.53;;;11.03;100.00
55590;BME280;41452;42.780;23.116;2022-12-11T05:48:57;92378.38;;;10.96;100.00
55590;BME280;41452;42.780;23.116;2022-12-11T05:51:23;92335.09;;;10.70;100.00
55590;BME280;41452;42.780;23.116;2022-12-11T05:53:50;92340.72;;;10.82;100.00
55590;BME280;41452;42.780;23.116;2022-12-11T05:56:22;92367.44;;;10.89;100.00
55590;BME280;41452;42.780;23.116;2022-12-11T05:58:49;92375.31;;;10.89;100.00
55590;BME280;41452;42.780;23.116;2022-12-11T06:01:36;92337.13;;;10.73;100.00
55590;BME280;41452;42.780;23.116;2022-12-11T06:04:03;92382.16;;;10.85;100.00
55590;BME280;41452;42.780;23.116;2022-12-11T06:06:29;92381.06;;;10.91;100.00
55590;BME280;41452;42.780;23.116;2022-12-11T06:08:56;92381.78;;;10.97;100.00
55590;BME280;41452;42.780;23.116;2022-12-11T06:11:22;92383.06;;;10.99;100.00
55590;BME280;41452;42.780;23.116;2022-12-11T06:13:48;92377.59;;;10.96;100.00
55590;BME280;41452;42.780;23.116;2022-12-11T06:16:14;92391.69;;;11.05;100.00
55590;BME280;41452;42.780;23.116;2022-12-11T06:18:41;92403.19;;;11.09;100.00
55590;BME280;41452;42.780;23.116;2022-12-11T06:21:12;92408.72;;;11.08;100.00
55590;BME280;41452;42.780;23.116;2022-12-11T06:23:38;92402.75;;;11.02;100.00
55590;BME280;41452;42.780;23.116;2022-12-11T06:26:04;92387.63;;;10.89;100.00
55590;BME280;41452;42.780;23.116;2022-12-11T06:28:29;92353.25;;;10.66;100.00
55590;BME280;41452;42.780;23.116;2022-12-11T06:30:58;92407.72;;;11.03;100.00
55590;BME280;41452;42.780;23.116;2022-12-11T06:33:23;92381.63;;;10.88;100.00
55590;BME280;41452;42.780;23.116;2022-12-11T06:35:49;92404.28;;;11.03;100.00
55590;BME280;41452;42.780;23.116;2022-12-11T06:38:15;92390.88;;;11.04;100.00
55590;BME280;41452;42.780;23.116;2022-12-11T06:40:40;92396.34;;;11.08;100.00
55590;BME280;41452;42.780;23.116;2022-12-11T06:43:05;92380.66;;;11.03;100.00
55590;BME280;41452;42.780;23.116;2022-12-11T06:45:31;92406.53;;;11.15;100.00
55590;BME280;41452;42.780;23.116;2022-12-11T06:47:57;92356.13;;;10.89;100.00
55590;BME280;41452;42.780;23.116;2022-12-11T06:50:22;92401.16;;;11.25;100.00
55590;BME280;41452;42.780;23.116;2022-12-11T06:52:48;92359.63;;;10.84;100.00
55590;BME280;41452;42.780;23.116;2022-12-11T06:55:13;92399.88;;;11.22;100.00
55590;BME280;41452;42.780;23.116;2022-12-11T06:57:38;92415.34;;;11.24;100.00
55590;BME280;41452;42.780;23.116;2022-12-11T07:00:04;92406.78;;;11.37;100.00
55590;BME280;41452;42.780;23.116;2022-12-11T07:02:30;92377.25;;;11.02;100.00
55590;BME280;41452;42.780;23.116;2022-12-11T07:04:56;92400.03;;;11.31;100.00
55590;BME280;41452;42.780;23.116;2022-12-11T07:07:21;92411.50;;;11.40;100.00
55590;BME280;41452;42.780;23.116;2022-12-11T07:09:47;92413.13;;;11.55;100.00
55590;BME280;41452;42.780;23.116;2022-12-11T07:12:12;92407.88;;;11.55;100.00
55590;BME280;41452;42.780;23.116;2022-12-11T07:14:38;92421.47;;;11.63;100.00
55590;BME280;41452;42.780;23.116;2022-12-11T07:17:03;92406.44;;;11.63;100.00
55590;BME280;41452;42.780;23.116;2022-12-11T07:19:29;92423.31;;;11.81;100.00
55590;BME280;41452;42.780;23.116;2022-12-11T07:21:55;92381.94;;;11.68;100.00
55590;BME280;41452;42.780;23.116;2022-12-11T07:24:20;92423.47;;;12.09;100.00
55590;BME280;41452;42.780;23.116;2022-12-11T07:26:46;92432.13;;;12.09;100.00
55590;BME280;41452;42.780;23.116;2022-12-11T07:29:11;92428.94;;;12.12;100.00
55590;BME280;41452;42.780;23.116;2022-12-11T07:31:37;92432.69;;;12.25;100.00
55590;BME280;41452;42.780;23.116;2022-12-11T07:34:05;92373.91;;;11.97;100.00
55590;BME280;41452;42.780;23.116;2022-12-11T07:36:31;92443.31;;;12.53;97.98
55590;BME280;41452;42.780;23.116;2022-12-11T07:38:57;92450.88;;;12.60;99.53
55590;BME280;41452;42.780;23.116;2022-12-11T07:41:23;92409.38;;;12.51;96.94
55590;BME280;41452;42.780;23.116;2022-12-11T07:43:48;92445.44;;;12.84;97.54
55590;BME280;41452;42.780;23.116;2022-12-11T07:46:20;92447.31;;;12.83;97.05
55590;BME280;41452;42.780;23.116;2022-12-11T07:48:47;92459.22;;;12.94;95.73
55590;BME280;41452;42.780;23.116;2022-12-11T07:51:22;92444.41;;;12.99;95.66
55590;BME280;41452;42.780;23.116;2022-12-11T07:53:51;92451.50;;;12.98;95.60
55590;BME280;41452;42.780;23.116;2022-12-11T07:56:18;92454.44;;;13.10;94.31
55590;BME280;41452;42.780;23.116;2022-12-11T07:58:44;92453.78;;;13.19;93.05
55590;BME280;41452;42.780;23.116;2022-12-11T08:01:17;92456.13;;;13.20;91.30
55590;BME280;41452;42.780;23.116;2022-12-11T08:03:43;92431.94;;;13.18;91.84
55590;BME280;41452;42.780;23.116;2022-12-11T08:06:09;92454.78;;;13.37;93.23
55590;BME280;41452;42.780;23.116;2022-12-11T08:08:35;92425.47;;;13.24;91.50
55590;BME280;41452;42.780;23.116;2022-12-11T08:11:02;92441.72;;;13.45;91.07
55590;BME280;41452;42.780;23.116;2022-12-11T08:13:27;92451.88;;;13.52;90.54
55590;BME280;41452;42.780;23.116;2022-12-11T08:15:53;92446.97;;;13.45;91.82
55590;BME280;41452;42.780;23.116;2022-12-11T08:18:18;92427.47;;;13.33;92.12
55590;BME280;41452;42.780;23.116;2022-12-11T08:20:44;92446.09;;;13.50;92.30
55590;BME280;41452;42.780;23.116;2022-12-11T08:23:09;92450.78;;;13.53;90.94
55590;BME280;41452;42.780;23.116;2022-12-11T08:25:35;92455.56;;;13.51;91.29
55590;BME280;41452;42.780;23.116;2022-12-11T08:28:00;92445.78;;;13.52;91.22
55590;BME280;41452;42.780;23.116;2022-12-11T08:30:25;92423.75;;;13.34;90.98
55590;BME280;41452;42.780;23.116;2022-12-11T08:32:51;92420.63;;;13.45;91.53
55590;BME280;41452;42.780;23.116;2022-12-11T08:35:16;92415.72;;;13.39;92.22
55590;BME280;41452;42.780;23.116;2022-12-11T08:37:42;92401.66;;;13.29;93.90
55590;BME280;41452;42.780;23.116;2022-12-11T08:40:08;92411.84;;;13.36;94.31
55590;BME280;41452;42.780;23.116;2022-12-11T08:42:34;92404.09;;;13.26;93.77
55590;BME280;41452;42.780;23.116;2022-12-11T08:45:00;92414.97;;;13.38;94.34
55590;BME280;41452;42.780;23.116;2022-12-11T08:47:26;92405.97;;;13.25;94.29
55590;BME280;41452;42.780;23.116;2022-12-11T08:49:51;92381.56;;;13.06;94.38
55590;BME280;41452;42.780;23.116;2022-12-11T08:52:16;92429.06;;;13.28;94.78
55590;BME280;41452;42.780;23.116;2022-12-11T08:54:42;92423.72;;;13.20;94.68
55590;BME280;41452;42.780;23.116;2022-12-11T08:57:07;92428.41;;;13.23;95.00
55590;BME280;41452;42.780;23.116;2022-12-11T08:59:33;92426.66;;;13.18;94.21
55590;BME280;41452;42.780;23.116;2022-12-11T09:01:58;92426.25;;;13.25;95.20
55590;BME280;41452;42.780;23.116;2022-12-11T09:04:23;92420.03;;;13.35;92.69
55590;BME280;41452;42.780;23.116;2022-12-11T09:06:49;92429.78;;;13.48;92.79
55590;BME280;41452;42.780;23.116;2022-12-11T09:09:14;92434.28;;;13.61;94.11
55590;BME280;41452;42.780;23.116;2022-12-11T09:11:40;92430.34;;;13.73;94.03
55590;BME280;41452;42.780;23.116;2022-12-11T09:14:06;92380.53;;;13.57;93.40
55590;BME280;41452;42.780;23.116;2022-12-11T09:16:31;92434.19;;;14.03;92.28
55590;BME280;41452;42.780;23.116;2022-12-11T09:18:58;92434.38;;;14.06;90.41
55590;BME280;41452;42.780;23.116;2022-12-11T09:21:26;92431.44;;;14.08;92.07
55590;BME280;41452;42.780;23.116;2022-12-11T09:23:54;92283.66;;;13.12;92.43
55590;BME280;41452;42.780;23.116;2022-12-11T09:26:21;92423.34;;;14.27;92.16
55590;BME280;41452;42.780;23.116;2022-12-11T09:28:47;92431.34;;;14.36;90.11
55590;BME280;41452;42.780;23.116;2022-12-11T09:31:15;92431.81;;;14.38;88.96
55590;BME280;41452;42.780;23.116;2022-12-11T09:33:40;92397.78;;;14.36;91.28
55590;BME280;41452;42.780;23.116;2022-12-11T09:36:06;92419.88;;;14.63;88.64
55590;BME280;41452;42.780;23.116;2022-12-11T09:38:33;92428.16;;;14.70;88.20
55590;BME280;41452;42.780;23.116;2022-12-11T09:40:58;92416.53;;;14.71;84.73
55590;BME280;41452;42.780;23.116;2022-12-11T09:43:37;92412.91;;;14.67;87.74
55590;BME280;41452;42.780;23.116;2022-12-11T09:46:09;92416.97;;;14.51;85.38
55590;BME280;41452;42.780;23.116;2022-12-11T09:48:37;92408.22;;;14.41;87.11
55590;BME280;41452;42.780;23.116;2022-12-11T09:54:15;92412.56;;;14.37;87.45
55590;BME280;41452;42.780;23.116;2022-12-11T09:56:53;92409.50;;;14.21;87.87
55590;BME280;41452;42.780;23.116;2022-12-11T10:00:00;92394.28;;;14.04;89.03
55590;BME280;41452;42.780;23.116;2022-12-11T10:16:18;92401.81;;;14.11;89.96
55590;BME280;41452;42.780;23.116;2022-12-11T10:18:49;92387.69;;;13.93;91.01
55590;BME280;41452;42.780;23.116;2022-12-11T10:21:16;92410.31;;;14.08;90.88
55590;BME280;41452;42.780;23.116;2022-12-11T10:23:46;92365.13;;;13.87;92.78
55590;BME280;41452;42.780;23.116;2022-12-11T10:26:19;92386.41;;;13.91;94.12
55590;BME280;41452;42.780;23.116;2022-12-11T10:28:45;92414.47;;;14.00;95.28
55590;BME280;41452;42.780;23.116;2022-12-11T10:31:19;92405.19;;;13.89;98.38
55590;BME280;41452;42.780;23.116;2022-12-11T10:33:59;92421.78;;;14.03;98.17
55590;BME280;41452;42.780;23.116;2022-12-11T10:36:27;92426.75;;;14.05;98.17
55590;BME280;41452;42.780;23.116;2022-12-11T10:38:54;92420.28;;;14.11;99.34
55590;BME280;41452;42.780;23.116;2022-12-11T10:41:26;92408.78;;;14.07;97.07
55590;BME280;41452;42.780;23.116;2022-12-11T10:43:55;92404.09;;;14.04;98.76
55590;BME280;41452;42.780;23.116;2022-12-11T10:51:18;92407.50;;;14.04;99.64
55590;BME280;41452;42.780;23.116;2022-12-11T10:53:52;92411.28;;;14.12;100.00
55590;BME280;41452;42.780;23.116;2022-12-11T10:56:26;92399.34;;;14.15;100.00
55590;BME280;41452;42.780;23.116;2022-12-11T10:58:54;92402.69;;;14.06;100.00
55590;BME280;41452;42.780;23.116;2022-12-11T11:01:22;92391.38;;;14.06;100.00
55590;BME280;41452;42.780;23.116;2022-12-11T11:06:21;92402.03;;;14.01;97.84
55590;BME280;41452;42.780;23.116;2022-12-11T11:08:53;92397.16;;;13.94;97.36
55590;BME280;41452;42.780;23.116;2022-12-11T11:13:49;92401.97;;;13.92;96.77
55590;BME280;41452;42.780;23.116;2022-12-11T11:16:17;92393.09;;;13.88;97.36
55590;BME280;41452;42.780;23.116;2022-12-11T11:18:54;92404.97;;;13.99;95.03
55590;BME280;41452;42.780;23.116;2022-12-11T11:21:24;92382.31;;;12.92;90.29
55590;BME280;41452;42.780;23.116;2022-12-11T11:23:51;92405.25;;;12.45;92.46
55590;BME280;41452;42.780;23.116;2022-12-11T11:26:18;92390.84;;;11.91;94.77
55590;BME280;41452;42.780;23.116;2022-12-11T11:28:51;92411.16;;;11.66;95.30
55590;BME280;41452;42.780;23.116;2022-12-11T11:31:18;92411.72;;;11.20;94.23
55590;BME280;41452;42.780;23.116;2022-12-11T11:34:04;92404.66;;;10.67;95.03
55590;BME280;41452;42.780;23.116;2022-12-11T11:36:30;92415.38;;;10.46;97.54
55590;BME280;41452;42.780;23.116;2022-12-11T11:39:25;92415.00;;;9.89;98.80
55590;BME280;41452;42.780;23.116;2022-12-11T11:44:29;92397.94;;;9.47;99.24
55590;BME280;41452;42.780;23.116;2022-12-11T11:47:14;92388.91;;;9.19;99.10
55590;BME280;41452;42.780;23.116;2022-12-11T11:52:38;92403.41;;;8.96;100.00
55590;BME280;41452;42.780;23.116;2022-12-11T11:55:38;92401.88;;;8.85;100.00
55590;BME280;41452;42.780;23.116;2022-12-11T11:58:19;92407.16;;;8.64;100.00
55590;BME280;41452;42.780;23.116;2022-12-11T12:00:53;92404.28;;;8.40;100.00
55590;BME280;41452;42.780;23.116;2022-12-11T12:03:20;92396.72;;;8.18;100.00
55590;BME280;41452;42.780;23.116;2022-12-11T12:08:42;92441.44;;;8.11;100.00
55590;BME280;41452;42.780;23.116;2022-12-11T12:13:56;92436.13;;;7.60;100.00
55590;BME280;41452;42.780;23.116;2022-12-11T12:16:33;92436.78;;;7.19;100.00
55590;BME280;41452;42.780;23.116;2022-12-11T12:21:49;92429.34;;;6.80;100.00
55590;BME280;41452;42.780;23.116;2022-12-11T12:24:44;92451.69;;;6.61;100.00
55590;BME280;41452;42.780;23.116;2022-12-11T12:27:30;92462.50;;;6.42;100.00
55590;BME280;41452;42.780;23.116;2022-12-11T12:47:59;92495.38;;;5.89;100.00
55590;BME280;41452;42.780;23.116;2022-12-11T12:50:37;92506.75;;;5.78;100.00
55590;BME280;41452;42.780;23.116;2022-12-11T12:53:04;92488.59;;;5.61;100.00
55590;BME280;41452;42.780;23.116;2022-12-11T12:55:31;92491.44;;;5.59;100.00
55590;BME280;41452;42.780;23.116;2022-12-11T12:58:02;92522.03;;;5.47;100.00
55590;BME280;41452;42.780;23.116;2022-12-11T13:00:37;92480.16;;;5.26;100.00
55590;BME280;41452;42.780;23.116;2022-12-11T13:03:34;92519.38;;;5.20;100.00
55590;BME280;41452;42.780;23.116;2022-12-11T13:06:07;92520.38;;;5.19;100.00
55590;BME280;41452;42.780;23.116;2022-12-11T13:08:49;92493.22;;;5.09;100.00
55590;BME280;41452;42.780;23.116;2022-12-11T13:11:18;92519.72;;;5.28;100.00
55590;BME280;41452;42.780;23.116;2022-12-11T13:13:47;92498.63;;;5.25;100.00
55590;BME280;41452;42.780;23.116;2022-12-11T13:18:41;92459.78;;;4.79;100.00
55590;BME280;41452;42.780;23.116;2022-12-11T13:23:54;92562.56;;;4.82;100.00
55590;BME280;41452;42.780;23.116;2022-12-11T13:26:32;92544.06;;;4.61;100.00
55590;BME280;41452;42.780;23.116;2022-12-11T13:28:58;92510.91;;;4.17;100.00
55590;BME280;41452;42.780;23.116;2022-12-11T13:34:23;92540.50;;;4.33;100.00
55590;BME280;41452;42.780;23.116;2022-12-11T13:36:49;92545.78;;;4.22;100.00
55590;BME280;41452;42.780;23.116;2022-12-11T13:39:23;92560.09;;;4.24;100.00
55590;BME280;41452;42.780;23.116;2022-12-11T13:41:53;92553.94;;;4.13;100.00
55590;BME280;41452;42.780;23.116;2022-12-11T13:44:24;92577.78;;;4.10;100.00
55590;BME280;41452;42.780;23.116;2022-12-11T13:46:52;92539.03;;;3.92;100.00
55590;BME280;41452;42.780;23.116;2022-12-11T13:49:25;92518.06;;;3.65;100.00
55590;BME280;41452;42.780;23.116;2022-12-11T13:51:57;92529.03;;;3.55;100.00
55590;BME280;41452;42.780;23.116;2022-12-11T13:54:24;92573.09;;;3.78;100.00
55590;BME280;41452;42.780;23.116;2022-12-11T13:57:11;92592.19;;;3.72;100.00
55590;BME280;41452;42.780;23.116;2022-12-11T13:59:42;92597.56;;;3.83;100.00
55590;BME280;41452;42.780;23.116;2022-12-11T14:02:21;92597.25;;;3.79;100.00
55590;BME280;41452;42.780;23.116;2022-12-11T14:04:51;92602.47;;;3.67;100.00
55590;BME280;41452;42.780;23.116;2022-12-11T14:07:37;92600.25;;;3.59;100.00
55590;BME280;41452;42.780;23.116;2022-12-11T14:12:42;92596.38;;;3.61;100.00
55590;BME280;41452;42.780;23.116;2022-12-11T14:15:13;92612.78;;;3.50;100.00
55590;BME280;41452;42.780;23.116;2022-12-11T14:17:40;92597.69;;;3.35;100.00
55590;BME280;41452;42.780;23.116;2022-12-11T14:20:18;92602.66;;;3.25;100.00